sensor_id;sensor_type;location;lat;lon;timestamp;temperature;humidity
51029;DHT22;37054;52.054;8.600;2023-08-30T00:01:11;15.80;58.70
51029;DHT22;37054;52.054;8.600;2023-08-30T00:03:37;15.90;58.70
51029;DHT22;37054;52.054;8.600;2023-08-30T00:06:03;15.90;58.70
51029;DHT22;37054;52.054;8.600;2023-08-30T00:08:29;15.90;58.80
51029;DHT22;37054;52.054;8.600;2023-08-30T00:10:55;15.90;58.80
51029;DHT22;37054;52.054;8.600;2023-08-30T00:13:24;15.90;58.70
51029;DHT22;37054;52.054;8.600;2023-08-30T00:15:49;15.90;58.80
51029;DHT22;37054;52.054;8.600;2023-08-30T00:18:15;15.90;58.70
51029;DHT22;37054;52.054;8.600;2023-08-30T00:20:40;15.90;58.70
51029;DHT22;37054;52.054;8.600;2023-08-30T00:23:06;15.90;58.80
51029;DHT22;37054;52.054;8.600;2023-08-30T00:25:32;16.00;58.70
51029;DHT22;37054;52.054;8.600;2023-08-30T00:27:57;15.90;58.60
51029;DHT22;37054;52.054;8.600;2023-08-30T00:30:22;15.90;58.70
51029;DHT22;37054;52.054;8.600;2023-08-30T00:32:48;16.00;58.70
51029;DHT22;37054;52.054;8.600;2023-08-30T00:35:13;16.00;58.80
51029;DHT22;37054;52.054;8.600;2023-08-30T00:37:39;16.00;58.80
51029;DHT22;37054;52.054;8.600;2023-08-30T00:40:05;16.00;58.90
51029;DHT22;37054;52.054;8.600;2023-08-30T00:42:31;16.00;59.00
51029;DHT22;37054;52.054;8.600;2023-08-30T00:44:57;16.10;59.10
51029;DHT22;37054;52.054;8.600;2023-08-30T00:47:23;16.10;59.20
51029;DHT22;37054;52.054;8.600;2023-08-30T00:49:48;16.20;59.30
51029;DHT22;37054;52.054;8.600;2023-08-30T00:52:14;16.20;59.30
51029;DHT22;37054;52.054;8.600;2023-08-30T00:54:40;16.20;59.30
51029;DHT22;37054;52.054;8.600;2023-08-30T00:57:06;16.20;59.30
51029;DHT22;37054;52.054;8.600;2023-08-30T00:59:32;16.20;59.20
51029;DHT22;37054;52.054;8.600;2023-08-30T01:01:57;16.30;59.00
51029;DHT22;37054;52.054;8.600;2023-08-30T01:04:24;16.30;58.90
51029;DHT22;37054;52.054;8.600;2023-08-30T01:06:50;16.30;58.80
51029;DHT22;37054;52.054;8.600;2023-08-30T01:09:15;16.30;59.00
51029;DHT22;37054;52.054;8.600;2023-08-30T01:14:15;16.20;59.00
51029;DHT22;37054;52.054;8.600;2023-08-30T01:16:43;16.20;58.90
51029;DHT22;37054;52.054;8.600;2023-08-30T01:19:36;16.20;59.00
51029;DHT22;37054;52.054;8.600;2023-08-30T01:24:41;16.20;59.10
51029;DHT22;37054;52.054;8.600;2023-08-30T01:27:12;16.20;59.20
51029;DHT22;37054;52.054;8.600;2023-08-30T01:29:39;16.30;59.30
51029;DHT22;37054;52.054;8.600;2023-08-30T01:32:05;16.30;59.40
51029;DHT22;37054;52.054;8.600;2023-08-30T01:34:32;16.40;59.40
51029;DHT22;37054;52.054;8.600;2023-08-30T01:36:58;16.40;59.50
51029;DHT22;37054;52.054;8.600;2023-08-30T01:39:24;16.40;59.60
51029;DHT22;37054;52.054;8.600;2023-08-30T01:41:50;16.50;59.60
51029;DHT22;37054;52.054;8.600;2023-08-30T01:44:17;16.60;59.70
51029;DHT22;37054;52.054;8.600;2023-08-30T01:46:43;16.60;59.70
51029;DHT22;37054;52.054;8.600;2023-08-30T01:49:09;16.70;59.80
51029;DHT22;37054;52.054;8.600;2023-08-30T01:51:35;16.70;60.00
51029;DHT22;37054;52.054;8.600;2023-08-30T01:54:00;16.80;60.10
51029;DHT22;37054;52.054;8.600;2023-08-30T01:56:27;16.80;60.10
51029;DHT22;37054;52.054;8.600;2023-08-30T01:58:52;16.80;60.00
51029;DHT22;37054;52.054;8.600;2023-08-30T02:01:18;16.90;60.10
51029;DHT22;37054;52.054;8.600;2023-08-30T02:03:44;16.90;60.00
51029;DHT22;37054;52.054;8.600;2023-08-30T02:06:11;16.90;60.00
51029;DHT22;37054;52.054;8.600;2023-08-30T02:08:41;17.00;60.30
51029;DHT22;37054;52.054;8.600;2023-08-30T02:11:07;17.00;60.30
51029;DHT22;37054;52.054;8.600;2023-08-30T02:13:33;17.10;60.30
51029;DHT22;37054;52.054;8.600;2023-08-30T02:16:00;17.10;60.30
51029;DHT22;37054;52.054;8.600;2023-08-30T02:18:26;17.20;60.30
51029;DHT22;37054;52.054;8.600;2023-08-30T02:20:52;17.20;60.30
51029;DHT22;37054;52.054;8.600;2023-08-30T02:23:17;17.30;60.20
51029;DHT22;37054;52.054;8.600;2023-08-30T02:25:43;17.30;60.20
51029;DHT22;37054;52.054;8.600;2023-08-30T02:28:08;17.30;60.10
51029;DHT22;37054;52.054;8.600;2023-08-30T02:30:34;17.40;60.00
51029;DHT22;37054;52.054;8.600;2023-08-30T02:32:59;17.40;60.00
51029;DHT22;37054;52.054;8.600;2023-08-30T02:35:24;17.40;60.00
51029;DHT22;37054;52.054;8.600;2023-08-30T02:37:50;17.50;60.00
51029;DHT22;37054;52.054;8.600;2023-08-30T02:40:15;17.50;60.10
51029;DHT22;37054;52.054;8.600;2023-08-30T02:42:41;17.50;60.10
51029;DHT22;37054;52.054;8.600;2023-08-30T02:45:06;17.50;60.10
51029;DHT22;37054;52.054;8.600;2023-08-30T02:47:32;17.60;60.00
51029;DHT22;37054;52.054;8.600;2023-08-30T02:49:57;17.60;60.00
51029;DHT22;37054;52.054;8.600;2023-08-30T02:52:23;17.60;59.90
51029;DHT22;37054;52.054;8.600;2023-08-30T02:54:48;17.60;59.90
51029;DHT22;37054;52.054;8.600;2023-08-30T02:57:14;17.60;59.90
51029;DHT22;37054;52.054;8.600;2023-08-30T02:59:39;17.60;59.70
51029;DHT22;37054;52.054;8.600;2023-08-30T03:02:05;17.50;59.80
51029;DHT22;37054;52.054;8.600;2023-08-30T03:04:30;17.50;59.80
51029;DHT22;37054;52.054;8.600;2023-08-30T03:06:56;17.40;59.70
51029;DHT22;37054;52.054;8.600;2023-08-30T03:09:21;17.40;59.60
51029;DHT22;37054;52.054;8.600;2023-08-30T03:11:47;17.30;59.60
51029;DHT22;37054;52.054;8.600;2023-08-30T03:14:12;17.30;59.60
51029;DHT22;37054;52.054;8.600;2023-08-30T03:16:38;17.30;59.60
51029;DHT22;37054;52.054;8.600;2023-08-30T03:19:03;17.20;59.50
51029;DHT22;37054;52.054;8.600;2023-08-30T03:21:29;17.10;59.60
51029;DHT22;37054;52.054;8.600;2023-08-30T03:23:54;17.10;59.60
51029;DHT22;37054;52.054;8.600;2023-08-30T03:26:19;17.00;59.70
51029;DHT22;37054;52.054;8.600;2023-08-30T03:28:45;17.00;59.80
51029;DHT22;37054;52.054;8.600;2023-08-30T03:31:18;17.00;59.80
51029;DHT22;37054;52.054;8.600;2023-08-30T03:33:43;16.90;59.90
51029;DHT22;37054;52.054;8.600;2023-08-30T03:36:10;16.80;59.80
51029;DHT22;37054;52.054;8.600;2023-08-30T03:38:35;16.80;60.00
51029;DHT22;37054;52.054;8.600;2023-08-30T03:41:01;16.80;60.00
51029;DHT22;37054;52.054;8.600;2023-08-30T03:43:27;16.70;60.00
51029;DHT22;37054;52.054;8.600;2023-08-30T03:45:53;16.70;60.00
51029;DHT22;37054;52.054;8.600;2023-08-30T03:48:18;16.70;60.00
51029;DHT22;37054;52.054;8.600;2023-08-30T03:50:43;16.70;60.00
51029;DHT22;37054;52.054;8.600;2023-08-30T03:53:09;16.70;60.10
51029;DHT22;37054;52.054;8.600;2023-08-30T03:55:34;16.70;60.20
51029;DHT22;37054;52.054;8.600;2023-08-30T03:58:00;16.70;60.20
51029;DHT22;37054;52.054;8.600;2023-08-30T04:00:25;16.70;60.20
51029;DHT22;37054;52.054;8.600;2023-08-30T04:02:51;16.70;60.20
51029;DHT22;37054;52.054;8.600;2023-08-30T04:05:16;16.70;60.10
51029;DHT22;37054;52.054;8.600;2023-08-30T04:07:41;16.70;60.20
51029;DHT22;37054;52.054;8.600;2023-08-30T04:10:07;16.60;60.20
51029;DHT22;37054;52.054;8.600;2023-08-30T04:12:33;16.60;60.20
51029;DHT22;37054;52.054;8.600;2023-08-30T04:15:00;16.50;60.20
51029;DHT22;37054;52.054;8.600;2023-08-30T04:17:26;16.50;60.10
51029;DHT22;37054;52.054;8.600;2023-08-30T04:19:51;16.40;60.20
51029;DHT22;37054;52.054;8.600;2023-08-30T04:22:17;16.30;60.20
51029;DHT22;37054;52.054;8.600;2023-08-30T04:24:43;16.30;60.30
51029;DHT22;37054;52.054;8.600;2023-08-30T04:27:08;16.30;60.30
51029;DHT22;37054;52.054;8.600;2023-08-30T04:29:34;16.20;60.30
51029;DHT22;37054;52.054;8.600;2023-08-30T04:31:59;16.20;60.50
51029;DHT22;37054;52.054;8.600;2023-08-30T04:34:25;16.30;60.60
51029;DHT22;37054;52.054;8.600;2023-08-30T04:36:50;16.30;60.60
51029;DHT22;37054;52.054;8.600;2023-08-30T04:39:15;16.30;60.50
51029;DHT22;37054;52.054;8.600;2023-08-30T04:41:41;16.20;60.40
51029;DHT22;37054;52.054;8.600;2023-08-30T04:44:06;16.20;60.40
51029;DHT22;37054;52.054;8.600;2023-08-30T04:46:32;16.20;60.40
51029;DHT22;37054;52.054;8.600;2023-08-30T04:48:58;16.20;60.50
51029;DHT22;37054;52.054;8.600;2023-08-30T04:51:23;16.10;60.50
51029;DHT22;37054;52.054;8.600;2023-08-30T04:53:48;16.10;60.50
51029;DHT22;37054;52.054;8.600;2023-08-30T04:56:14;16.10;60.60
51029;DHT22;37054;52.054;8.600;2023-08-30T04:58:40;16.10;60.60
51029;DHT22;37054;52.054;8.600;2023-08-30T05:01:05;16.00;60.60
51029;DHT22;37054;52.054;8.600;2023-08-30T05:03:32;16.10;60.90
51029;DHT22;37054;52.054;8.600;2023-08-30T05:05:57;16.00;60.80
51029;DHT22;37054;52.054;8.600;2023-08-30T05:08:23;16.00;60.90
51029;DHT22;37054;52.054;8.600;2023-08-30T05:10:48;16.00;61.00
51029;DHT22;37054;52.054;8.600;2023-08-30T05:13:15;16.10;61.30
51029;DHT22;37054;52.054;8.600;2023-08-30T05:15:41;16.20;61.50
51029;DHT22;37054;52.054;8.600;2023-08-30T05:18:07;16.30;61.60
51029;DHT22;37054;52.054;8.600;2023-08-30T05:20:32;16.40;61.70
51029;DHT22;37054;52.054;8.600;2023-08-30T05:22:57;16.60;61.70
51029;DHT22;37054;52.054;8.600;2023-08-30T05:25:23;16.70;61.60
51029;DHT22;37054;52.054;8.600;2023-08-30T05:27:48;16.80;61.70
51029;DHT22;37054;52.054;8.600;2023-08-30T05:30:14;16.80;61.70
51029;DHT22;37054;52.054;8.600;2023-08-30T05:32:40;17.00;61.70
51029;DHT22;37054;52.054;8.600;2023-08-30T05:35:05;17.10;61.70
51029;DHT22;37054;52.054;8.600;2023-08-30T05:37:31;17.20;61.70
51029;DHT22;37054;52.054;8.600;2023-08-30T05:39:57;17.30;61.70
51029;DHT22;37054;52.054;8.600;2023-08-30T05:42:22;17.30;61.80
51029;DHT22;37054;52.054;8.600;2023-08-30T05:44:48;17.50;61.80
51029;DHT22;37054;52.054;8.600;2023-08-30T05:47:13;17.60;61.70
51029;DHT22;37054;52.054;8.600;2023-08-30T05:49:42;17.70;61.70
51029;DHT22;37054;52.054;8.600;2023-08-30T05:52:07;17.80;61.60
51029;DHT22;37054;52.054;8.600;2023-08-30T05:54:33;17.80;61.50
51029;DHT22;37054;52.054;8.600;2023-08-30T05:56:59;17.90;61.50
51029;DHT22;37054;52.054;8.600;2023-08-30T05:59:24;18.00;61.50
51029;DHT22;37054;52.054;8.600;2023-08-30T06:01:50;18.10;61.70
51029;DHT22;37054;52.054;8.600;2023-08-30T06:04:15;18.20;61.70
51029;DHT22;37054;52.054;8.600;2023-08-30T06:06:41;18.20;61.70
51029;DHT22;37054;52.054;8.600;2023-08-30T06:09:06;18.30;61.70
51029;DHT22;37054;52.054;8.600;2023-08-30T06:11:32;18.30;61.70
51029;DHT22;37054;52.054;8.600;2023-08-30T06:13:57;18.40;61.90
51029;DHT22;37054;52.054;8.600;2023-08-30T06:16:24;18.50;62.00
51029;DHT22;37054;52.054;8.600;2023-08-30T06:18:50;18.70;62.10
51029;DHT22;37054;52.054;8.600;2023-08-30T06:21:16;18.80;62.00
51029;DHT22;37054;52.054;8.600;2023-08-30T06:23:41;18.80;62.10
51029;DHT22;37054;52.054;8.600;2023-08-30T06:26:07;19.10;62.40
51029;DHT22;37054;52.054;8.600;2023-08-30T06:28:32;19.40;62.70
51029;DHT22;37054;52.054;8.600;2023-08-30T06:30:58;19.70;62.90
51029;DHT22;37054;52.054;8.600;2023-08-30T06:33:23;20.00;62.70
51029;DHT22;37054;52.054;8.600;2023-08-30T06:35:49;20.30;62.60
51029;DHT22;37054;52.054;8.600;2023-08-30T06:38:19;20.50;62.20
51029;DHT22;37054;52.054;8.600;2023-08-30T06:40:45;20.70;61.70
51029;DHT22;37054;52.054;8.600;2023-08-30T06:43:10;20.90;61.40
51029;DHT22;37054;52.054;8.600;2023-08-30T06:45:37;21.20;61.00
51029;DHT22;37054;52.054;8.600;2023-08-30T06:48:02;21.30;60.70
51029;DHT22;37054;52.054;8.600;2023-08-30T06:50:28;21.50;60.20
51029;DHT22;37054;52.054;8.600;2023-08-30T06:52:53;21.70;59.60
51029;DHT22;37054;52.054;8.600;2023-08-30T06:55:19;21.80;59.50
51029;DHT22;37054;52.054;8.600;2023-08-30T06:57:47;22.10;59.30
51029;DHT22;37054;52.054;8.600;2023-08-30T07:00:14;22.30;58.70
51029;DHT22;37054;52.054;8.600;2023-08-30T07:02:39;22.50;58.40
51029;DHT22;37054;52.054;8.600;2023-08-30T07:05:05;22.80;58.10
51029;DHT22;37054;52.054;8.600;2023-08-30T07:07:31;23.10;57.60
51029;DHT22;37054;52.054;8.600;2023-08-30T07:09:57;23.30;57.30
51029;DHT22;37054;52.054;8.600;2023-08-30T07:12:22;23.60;56.90
51029;DHT22;37054;52.054;8.600;2023-08-30T07:14:48;23.80;55.60
51029;DHT22;37054;52.054;8.600;2023-08-30T07:17:13;23.80;54.90
51029;DHT22;37054;52.054;8.600;2023-08-30T07:19:39;23.90;54.20
51029;DHT22;37054;52.054;8.600;2023-08-30T07:22:04;24.00;54.20
51029;DHT22;37054;52.054;8.600;2023-08-30T07:24:30;24.30;54.10
51029;DHT22;37054;52.054;8.600;2023-08-30T07:26:55;24.60;54.00
51029;DHT22;37054;52.054;8.600;2023-08-30T07:29:21;25.00;53.70
51029;DHT22;37054;52.054;8.600;2023-08-30T07:31:46;25.30;53.40
51029;DHT22;37054;52.054;8.600;2023-08-30T07:34:12;25.60;52.50
51029;DHT22;37054;52.054;8.600;2023-08-30T07:36:38;26.00;52.30
51029;DHT22;37054;52.054;8.600;2023-08-30T07:39:03;26.30;51.60
51029;DHT22;37054;52.054;8.600;2023-08-30T07:41:29;26.70;50.50
51029;DHT22;37054;52.054;8.600;2023-08-30T07:43:54;26.90;49.30
51029;DHT22;37054;52.054;8.600;2023-08-30T07:46:20;27.10;48.50
51029;DHT22;37054;52.054;8.600;2023-08-30T07:48:45;27.30;48.10
51029;DHT22;37054;52.054;8.600;2023-08-30T07:51:11;27.60;47.10
51029;DHT22;37054;52.054;8.600;2023-08-30T07:53:36;27.80;45.50
51029;DHT22;37054;52.054;8.600;2023-08-30T07:56:01;27.90;44.40
51029;DHT22;37054;52.054;8.600;2023-08-30T07:58:27;28.10;44.40
51029;DHT22;37054;52.054;8.600;2023-08-30T08:00:53;28.30;43.80
51029;DHT22;37054;52.054;8.600;2023-08-30T08:03:21;28.50;43.30
51029;DHT22;37054;52.054;8.600;2023-08-30T08:05:47;28.70;42.20
51029;DHT22;37054;52.054;8.600;2023-08-30T08:08:12;28.90;41.90
51029;DHT22;37054;52.054;8.600;2023-08-30T08:10:39;29.20;42.00
51029;DHT22;37054;52.054;8.600;2023-08-30T08:13:05;29.50;41.30
51029;DHT22;37054;52.054;8.600;2023-08-30T08:15:30;29.80;40.80
51029;DHT22;37054;52.054;8.600;2023-08-30T08:17:56;30.10;40.80
51029;DHT22;37054;52.054;8.600;2023-08-30T08:20:22;30.50;40.50
51029;DHT22;37054;52.054;8.600;2023-08-30T08:22:47;30.80;38.60
51029;DHT22;37054;52.054;8.600;2023-08-30T08:25:13;31.10;38.00
51029;DHT22;37054;52.054;8.600;2023-08-30T08:27:38;31.30;37.60
51029;DHT22;37054;52.054;8.600;2023-08-30T08:30:04;31.50;37.40
51029;DHT22;37054;52.054;8.600;2023-08-30T08:32:30;31.80;36.40
51029;DHT22;37054;52.054;8.600;2023-08-30T08:34:56;32.00;35.50
51029;DHT22;37054;52.054;8.600;2023-08-30T08:37:22;32.30;35.50
51029;DHT22;37054;52.054;8.600;2023-08-30T08:39:47;32.40;34.70
51029;DHT22;37054;52.054;8.600;2023-08-30T08:42:19;32.60;34.00
51029;DHT22;37054;52.054;8.600;2023-08-30T08:44:49;32.80;34.60
51029;DHT22;37054;52.054;8.600;2023-08-30T08:47:16;33.20;33.90
51029;DHT22;37054;52.054;8.600;2023-08-30T08:49:42;33.40;33.60
51029;DHT22;37054;52.054;8.600;2023-08-30T08:52:07;33.70;33.60
51029;DHT22;37054;52.054;8.600;2023-08-30T08:54:33;33.90;32.90
51029;DHT22;37054;52.054;8.600;2023-08-30T08:56:59;34.20;32.90
51029;DHT22;37054;52.054;8.600;2023-08-30T08:59:25;34.40;32.40
51029;DHT22;37054;52.054;8.600;2023-08-30T09:01:50;34.70;31.60
51029;DHT22;37054;52.054;8.600;2023-08-30T09:04:16;34.80;31.20
51029;DHT22;37054;52.054;8.600;2023-08-30T09:06:41;35.10;30.80
51029;DHT22;37054;52.054;8.600;2023-08-30T09:09:08;35.20;30.50
51029;DHT22;37054;52.054;8.600;2023-08-30T09:11:34;35.30;29.60
51029;DHT22;37054;52.054;8.600;2023-08-30T09:13:59;35.30;29.40
51029;DHT22;37054;52.054;8.600;2023-08-30T09:16:25;35.50;29.40
51029;DHT22;37054;52.054;8.600;2023-08-30T09:19:01;35.60;29.00
51029;DHT22;37054;52.054;8.600;2023-08-30T09:21:26;35.70;28.00
51029;DHT22;37054;52.054;8.600;2023-08-30T09:23:59;35.60;27.90
51029;DHT22;37054;52.054;8.600;2023-08-30T09:26:25;35.70;28.20
51029;DHT22;37054;52.054;8.600;2023-08-30T09:28:50;35.80;28.30
51029;DHT22;37054;52.054;8.600;2023-08-30T09:31:19;36.00;28.10
51029;DHT22;37054;52.054;8.600;2023-08-30T09:33:45;36.20;28.10
51029;DHT22;37054;52.054;8.600;2023-08-30T09:36:13;36.30;27.30
51029;DHT22;37054;52.054;8.600;2023-08-30T09:38:38;36.40;27.00
51029;DHT22;37054;52.054;8.600;2023-08-30T09:41:04;36.30;26.30
51029;DHT22;37054;52.054;8.600;2023-08-30T09:43:30;36.30;26.30
51029;DHT22;37054;52.054;8.600;2023-08-30T09:46:17;36.40;26.50
51029;DHT22;37054;52.054;8.600;2023-08-30T09:48:42;36.40;25.90
51029;DHT22;37054;52.054;8.600;2023-08-30T09:51:08;36.40;26.10
51029;DHT22;37054;52.054;8.600;2023-08-30T09:53:37;36.30;25.00
51029;DHT22;37054;52.054;8.600;2023-08-30T09:56:04;36.30;25.20
51029;DHT22;37054;52.054;8.600;2023-08-30T09:58:30;36.30;25.60
51029;DHT22;37054;52.054;8.600;2023-08-30T10:00:56;36.50;25.80
51029;DHT22;37054;52.054;8.600;2023-08-30T10:03:21;36.70;25.30
51029;DHT22;37054;52.054;8.600;2023-08-30T10:05:47;36.80;25.20
51029;DHT22;37054;52.054;8.600;2023-08-30T10:08:13;36.90;24.30
51029;DHT22;37054;52.054;8.600;2023-08-30T10:10:39;37.00;24.10
51029;DHT22;37054;52.054;8.600;2023-08-30T10:13:05;37.00;23.80
51029;DHT22;37054;52.054;8.600;2023-08-30T10:15:30;37.00;23.90
51029;DHT22;37054;52.054;8.600;2023-08-30T10:17:58;37.10;23.00
51029;DHT22;37054;52.054;8.600;2023-08-30T10:20:23;36.90;23.40
51029;DHT22;37054;52.054;8.600;2023-08-30T10:22:49;36.90;23.30
51029;DHT22;37054;52.054;8.600;2023-08-30T10:25:20;36.70;22.80
51029;DHT22;37054;52.054;8.600;2023-08-30T10:27:47;36.50;23.10
51029;DHT22;37054;52.054;8.600;2023-08-30T10:30:13;36.40;22.90
51029;DHT22;37054;52.054;8.600;2023-08-30T10:32:43;36.10;22.50
51029;DHT22;37054;52.054;8.600;2023-08-30T10:35:12;35.60;23.00
51029;DHT22;37054;52.054;8.600;2023-08-30T10:37:38;35.10;23.80
51029;DHT22;37054;52.054;8.600;2023-08-30T10:40:04;34.70;23.80
51029;DHT22;37054;52.054;8.600;2023-08-30T10:42:31;34.30;24.40
51029;DHT22;37054;52.054;8.600;2023-08-30T10:45:00;33.90;24.90
51029;DHT22;37054;52.054;8.600;2023-08-30T10:47:27;33.50;25.10
51029;DHT22;37054;52.054;8.600;2023-08-30T10:49:54;33.00;25.40
51029;DHT22;37054;52.054;8.600;2023-08-30T10:52:20;32.60;25.90
51029;DHT22;37054;52.054;8.600;2023-08-30T10:54:46;32.20;26.30
51029;DHT22;37054;52.054;8.600;2023-08-30T10:57:15;31.80;26.40
51029;DHT22;37054;52.054;8.600;2023-08-30T11:00:03;31.30;27.00
51029;DHT22;37054;52.054;8.600;2023-08-30T11:02:26;31.00;27.60
51029;DHT22;37054;52.054;8.600;2023-08-30T11:04:51;30.80;27.90
51029;DHT22;37054;52.054;8.600;2023-08-30T11:07:17;30.70;28.30
51029;DHT22;37054;52.054;8.600;2023-08-30T11:09:43;30.60;28.70
51029;DHT22;37054;52.054;8.600;2023-08-30T11:12:09;30.50;29.00
51029;DHT22;37054;52.054;8.600;2023-08-30T11:14:35;30.40;29.10
51029;DHT22;37054;52.054;8.600;2023-08-30T11:17:00;30.30;29.10
51029;DHT22;37054;52.054;8.600;2023-08-30T11:19:29;30.20;29.30
51029;DHT22;37054;52.054;8.600;2023-08-30T11:21:54;30.10;29.60
51029;DHT22;37054;52.054;8.600;2023-08-30T11:24:20;29.90;29.80
51029;DHT22;37054;52.054;8.600;2023-08-30T11:26:45;29.80;29.90
51029;DHT22;37054;52.054;8.600;2023-08-30T11:29:11;29.60;30.20
51029;DHT22;37054;52.054;8.600;2023-08-30T11:31:36;29.40;30.50
51029;DHT22;37054;52.054;8.600;2023-08-30T11:34:02;29.30;30.70
51029;DHT22;37054;52.054;8.600;2023-08-30T11:36:28;29.00;30.90
51029;DHT22;37054;52.054;8.600;2023-08-30T11:38:54;28.90;31.00
51029;DHT22;37054;52.054;8.600;2023-08-30T11:41:20;28.70;31.00
51029;DHT22;37054;52.054;8.600;2023-08-30T11:43:50;28.50;31.20
51029;DHT22;37054;52.054;8.600;2023-08-30T11:46:16;28.30;31.30
51029;DHT22;37054;52.054;8.600;2023-08-30T11:48:41;28.30;31.70
51029;DHT22;37054;52.054;8.600;2023-08-30T11:51:07;28.40;32.00
51029;DHT22;37054;52.054;8.600;2023-08-30T11:53:33;28.60;32.10
51029;DHT22;37054;52.054;8.600;2023-08-30T11:55:59;28.80;31.90
51029;DHT22;37054;52.054;8.600;2023-08-30T11:58:25;29.00;31.60
51029;DHT22;37054;52.054;8.600;2023-08-30T12:00:50;29.10;31.50
51029;DHT22;37054;52.054;8.600;2023-08-30T12:03:16;29.30;31.20
51029;DHT22;37054;52.054;8.600;2023-08-30T12:05:48;29.50;31.20
51029;DHT22;37054;52.054;8.600;2023-08-30T12:08:17;29.70;30.90
51029;DHT22;37054;52.054;8.600;2023-08-30T12:10:43;30.00;30.40
51029;DHT22;37054;52.054;8.600;2023-08-30T12:13:08;30.00;29.40
51029;DHT22;37054;52.054;8.600;2023-08-30T12:15:44;30.00;29.60
51029;DHT22;37054;52.054;8.600;2023-08-30T12:18:10;30.00;29.50
51029;DHT22;37054;52.054;8.600;2023-08-30T12:20:35;30.00;29.80
51029;DHT22;37054;52.054;8.600;2023-08-30T12:23:01;29.80;29.60
51029;DHT22;37054;52.054;8.600;2023-08-30T12:25:27;29.80;29.50
51029;DHT22;37054;52.054;8.600;2023-08-30T12:27:53;29.60;29.80
51029;DHT22;37054;52.054;8.600;2023-08-30T12:30:18;29.50;29.70
51029;DHT22;37054;52.054;8.600;2023-08-30T12:32:47;29.30;29.90
51029;DHT22;37054;52.054;8.600;2023-08-30T12:35:13;29.20;30.30
51029;DHT22;37054;52.054;8.600;2023-08-30T12:37:39;29.20;30.20
51029;DHT22;37054;52.054;8.600;2023-08-30T12:40:04;29.00;30.30
51029;DHT22;37054;52.054;8.600;2023-08-30T12:42:31;28.90;30.70
51029;DHT22;37054;52.054;8.600;2023-08-30T12:44:56;28.80;31.00
51029;DHT22;37054;52.054;8.600;2023-08-30T12:47:22;28.70;31.20
51029;DHT22;37054;52.054;8.600;2023-08-30T12:49:47;28.40;31.50
51029;DHT22;37054;52.054;8.600;2023-08-30T12:52:13;28.40;31.90
51029;DHT22;37054;52.054;8.600;2023-08-30T12:54:38;28.30;31.80
51029;DHT22;37054;52.054;8.600;2023-08-30T12:57:04;28.30;32.20
51029;DHT22;37054;52.054;8.600;2023-08-30T12:59:29;28.10;33.10
51029;DHT22;37054;52.054;8.600;2023-08-30T13:01:55;27.80;33.80
51029;DHT22;37054;52.054;8.600;2023-08-30T13:04:20;27.50;34.20
51029;DHT22;37054;52.054;8.600;2023-08-30T13:06:45;27.30;34.70
51029;DHT22;37054;52.054;8.600;2023-08-30T13:09:11;27.10;35.40
51029;DHT22;37054;52.054;8.600;2023-08-30T13:11:36;26.90;36.20
51029;DHT22;37054;52.054;8.600;2023-08-30T13:14:02;26.80;36.90
51029;DHT22;37054;52.054;8.600;2023-08-30T13:16:27;26.70;37.10
51029;DHT22;37054;52.054;8.600;2023-08-30T13:18:53;26.70;37.60
51029;DHT22;37054;52.054;8.600;2023-08-30T13:21:18;26.70;37.90
51029;DHT22;37054;52.054;8.600;2023-08-30T13:23:44;26.50;39.60
51029;DHT22;37054;52.054;8.600;2023-08-30T13:26:09;26.30;41.60
51029;DHT22;37054;52.054;8.600;2023-08-30T13:28:35;26.20;43.80
51029;DHT22;37054;52.054;8.600;2023-08-30T13:31:00;26.10;46.30
51029;DHT22;37054;52.054;8.600;2023-08-30T13:33:26;26.00;48.20
51029;DHT22;37054;52.054;8.600;2023-08-30T13:35:52;25.90;49.90
51029;DHT22;37054;52.054;8.600;2023-08-30T13:38:18;25.90;51.10
51029;DHT22;37054;52.054;8.600;2023-08-30T13:40:44;25.80;51.70
51029;DHT22;37054;52.054;8.600;2023-08-30T13:43:09;25.70;52.50
51029;DHT22;37054;52.054;8.600;2023-08-30T13:45:35;25.60;53.10
51029;DHT22;37054;52.054;8.600;2023-08-30T13:48:00;25.40;53.50
51029;DHT22;37054;52.054;8.600;2023-08-30T13:50:26;25.20;54.00
51029;DHT22;37054;52.054;8.600;2023-08-30T13:52:56;25.00;54.40
51029;DHT22;37054;52.054;8.600;2023-08-30T13:55:21;24.80;54.60
51029;DHT22;37054;52.054;8.600;2023-08-30T13:57:47;24.50;54.70
51029;DHT22;37054;52.054;8.600;2023-08-30T14:00:12;24.20;55.40
51029;DHT22;37054;52.054;8.600;2023-08-30T14:02:38;23.90;56.00
51029;DHT22;37054;52.054;8.600;2023-08-30T14:05:04;23.60;56.90
51029;DHT22;37054;52.054;8.600;2023-08-30T14:07:29;23.40;57.60
51029;DHT22;37054;52.054;8.600;2023-08-30T14:09:55;23.20;58.70
51029;DHT22;37054;52.054;8.600;2023-08-30T14:12:20;22.90;59.80
51029;DHT22;37054;52.054;8.600;2023-08-30T14:14:46;22.70;61.60
51029;DHT22;37054;52.054;8.600;2023-08-30T14:17:11;22.50;62.90
51029;DHT22;37054;52.054;8.600;2023-08-30T14:19:37;22.30;64.30
51029;DHT22;37054;52.054;8.600;2023-08-30T14:22:03;22.10;64.90
51029;DHT22;37054;52.054;8.600;2023-08-30T14:24:31;21.90;65.70
51029;DHT22;37054;52.054;8.600;2023-08-30T14:26:56;21.80;66.50
51029;DHT22;37054;52.054;8.600;2023-08-30T14:29:22;21.70;67.30
51029;DHT22;37054;52.054;8.600;2023-08-30T14:31:47;21.70;67.70
51029;DHT22;37054;52.054;8.600;2023-08-30T14:34:13;21.60;67.70
51029;DHT22;37054;52.054;8.600;2023-08-30T14:36:39;21.50;67.70
51029;DHT22;37054;52.054;8.600;2023-08-30T14:39:06;21.40;67.70
51029;DHT22;37054;52.054;8.600;2023-08-30T14:41:31;21.30;68.20
51029;DHT22;37054;52.054;8.600;2023-08-30T14:43:58;21.30;68.20
51029;DHT22;37054;52.054;8.600;2023-08-30T14:46:23;21.20;67.90
51029;DHT22;37054;52.054;8.600;2023-08-30T14:48:49;21.10;68.30
51029;DHT22;37054;52.054;8.600;2023-08-30T14:51:14;21.00;68.10
51029;DHT22;37054;52.054;8.600;2023-08-30T14:53:40;20.90;68.40
51029;DHT22;37054;52.054;8.600;2023-08-30T14:56:06;20.80;68.30
51029;DHT22;37054;52.054;8.600;2023-08-30T14:58:33;20.70;68.60
51029;DHT22;37054;52.054;8.600;2023-08-30T15:00:59;20.60;69.00
51029;DHT22;37054;52.054;8.600;2023-08-30T15:03:25;20.60;69.20
51029;DHT22;37054;52.054;8.600;2023-08-30T15:05:53;20.50;69.30
51029;DHT22;37054;52.054;8.600;2023-08-30T15:08:22;20.50;69.60
51029;DHT22;37054;52.054;8.600;2023-08-30T15:10:48;20.50;69.80
51029;DHT22;37054;52.054;8.600;2023-08-30T15:13:13;20.50;69.50
51029;DHT22;37054;52.054;8.600;2023-08-30T15:15:39;20.50;69.70
51029;DHT22;37054;52.054;8.600;2023-08-30T15:18:04;20.40;69.80
51029;DHT22;37054;52.054;8.600;2023-08-30T15:20:30;20.40;69.90
51029;DHT22;37054;52.054;8.600;2023-08-30T15:22:55;20.40;70.00
51029;DHT22;37054;52.054;8.600;2023-08-30T15:25:24;20.40;70.10
51029;DHT22;37054;52.054;8.600;2023-08-30T15:27:50;20.40;70.00